Time;durP1;ratioP1;P1;durP2;ratioP2;P2;SDS_P1;SDS_P2;PMS_P1;PMS_P2;Temp;Humidity;BMP_temperature;BMP_pressure;BME280_temperature;BME280_humidity;BME280_pressure;Samples;Min_cycle;Max_cycle;Signal;HPM_P1;HPM_P2
2021/06/28 00:02:29;;;;;;;;;19.00;18.00;;;;;19.55;81.49;101012.78;5076422;27;45416;-70
2021/06/28 00:04:54;;;;;;;;;12.67;8.33;;;;;19.55;81.33;101018.97;5073425;28;45434;-69
2021/06/28 00:07:19;;;;;;;;;15.00;11.67;;;;;19.54;81.61;101019.97;5075319;28;45387;-70
2021/06/28 00:09:45;;;;;;;;;11.00;8.67;;;;;19.53;80.85;101018.28;5074829;28;45504;-70
2021/06/28 00:12:11;;;;;;;;;9.67;9.00;;;;;19.54;81.35;101017.31;5075403;27;45427;-70
2021/06/28 00:14:36;;;;;;;;;11.00;9.33;;;;;19.53;81.75;101015.63;5075264;27;45424;-69
2021/06/28 00:17:01;;;;;;;;;14.00;13.00;;;;;19.53;81.79;101015.63;5075097;27;45400;-69
2021/06/28 00:19:27;;;;;;;;;12.67;11.67;;;;;19.52;81.95;101011.28;5088943;27;45563;-70
2021/06/28 00:21:52;;;;;;;;;11.33;10.00;;;;;19.48;81.77;101009.16;5077438;27;45435;-69
2021/06/28 00:24:18;;;;;;;;;9.00;8.00;;;;;19.46;82.16;101004.00;5073577;28;45389;-69
2021/06/28 00:26:43;;;;;;;;;10.33;9.67;;;;;19.43;82.24;101005.16;5074893;28;45501;-70
2021/06/28 00:29:08;;;;;;;;;13.00;9.67;;;;;19.43;81.82;100993.66;5074540;27;46168;-70
2021/06/28 00:31:34;;;;;;;;;12.00;11.00;;;;;19.42;81.97;100986.66;5074797;27;45409;-70
2021/06/28 00:34:01;;;;;;;;;9.00;9.00;;;;;19.39;81.75;100993.13;5074839;27;45469;-70
2021/06/28 00:36:26;;;;;;;;;11.33;10.00;;;;;19.38;81.67;100987.97;5073822;27;45430;-68
2021/06/28 00:38:51;;;;;;;;;19.00;16.00;;;;;19.39;81.81;100989.66;5073270;27;45701;-67
2021/06/28 00:41:17;;;;;;;;;9.33;8.00;;;;;19.39;82.10;100973.66;5075152;27;45354;-69
2021/06/28 00:43:43;;;;;;;;;9.67;7.67;;;;;19.38;82.23;100970.19;5074737;27;45426;-67
2021/06/28 00:46:08;;;;;;;;;9.00;8.00;;;;;19.38;81.55;100966.66;5074425;27;45350;-67
2021/06/28 00:48:33;;;;;;;;;10.00;9.67;;;;;19.38;81.64;100964.00;5074087;28;45425;-67
2021/06/28 00:50:59;;;;;;;;;12.67;8.33;;;;;19.37;81.90;100951.69;5073374;27;45350;-63
2021/06/28 00:53:25;;;;;;;;;6.67;6.00;;;;;19.34;81.52;100942.19;5074504;28;45368;-64
2021/06/28 00:55:52;;;;;;;;;7.33;6.00;;;;;19.34;81.31;100942.19;5073746;27;45544;-63
2021/06/28 00:58:18;;;;;;;;;8.33;7.00;;;;;19.33;81.46;100951.22;5073703;27;45663;-63
2021/06/28 01:00:44;;;;;;;;;8.00;8.00;;;;;19.33;81.85;100950.34;5073290;27;45444;-62
2021/06/28 01:03:10;;;;;;;;;6.67;6.67;;;;;19.29;81.29;100950.69;5074029;27;45481;-62
2021/06/28 01:05:38;;;;;;;;;6.00;6.00;;;;;19.28;81.41;100949.03;5073220;28;45428;-64
2021/06/28 01:08:05;;;;;;;;;6.00;6.00;;;;;19.27;80.82;100935.88;5074160;28;45609;-64
2021/06/28 01:10:31;;;;;;;;;5.33;5.33;;;;;19.26;81.34;100935.03;5074128;27;45567;-63
2021/06/28 01:12:58;;;;;;;;;7.33;7.33;;;;;19.25;81.15;100928.06;5102893;27;45362;-65
2021/06/28 01:15:24;;;;;;;;;5.00;5.00;;;;;19.21;81.80;100926.72;5073888;27;45456;-63
2021/06/28 01:17:52;;;;;;;;;6.00;6.00;;;;;19.17;81.36;100919.25;5076612;27;45468;-64
2021/06/28 01:20:23;;;;;;;;;6.00;5.00;;;;;19.13;81.67;100910.75;5077743;27;45512;-68
2021/06/28 01:22:53;;;;;;;;;4.33;4.33;;;;;19.08;81.08;100910.41;5078499;27;45552;-66
2021/06/28 01:25:22;;;;;;;;;5.67;5.00;;;;;19.05;80.62;100900.09;5077927;27;45511;-67
2021/06/28 01:27:48;;;;;;;;;5.00;4.00;;;;;18.99;80.70;100895.44;5077283;27;46153;-69
2021/06/28 01:30:17;;;;;;;;;3.67;3.67;;;;;18.90;80.46;100891.91;5077593;28;45429;-69
2021/06/28 01:32:44;;;;;;;;;3.33;2.33;;;;;18.77;80.75;100901.19;5077546;27;45417;-69
2021/06/28 01:35:12;;;;;;;;;3.67;3.67;;;;;18.72;80.79;100905.31;5077477;27;45403;-70
2021/06/28 01:37:37;;;;;;;;;5.33;4.33;;;;;18.70;81.08;100910.00;5077745;27;46300;-69
2021/06/28 01:40:07;;;;;;;;;3.67;3.00;;;;;18.70;81.14;100917.97;5078167;27;45407;-69
2021/06/28 01:42:35;;;;;;;;;9.33;6.00;;;;;18.70;81.37;100948.06;5077426;28;45417;-70
2021/06/28 01:45:00;;;;;;;;;3.33;3.33;;;;;18.72;81.66;100971.84;5078399;27;45584;-70
2021/06/28 01:47:25;;;;;;;;;4.67;4.67;;;;;18.75;81.68;100974.19;5078319;27;46161;-69
2021/06/28 01:49:51;;;;;;;;;6.00;5.00;;;;;18.78;81.12;100971.22;5078038;27;45527;-69
2021/06/28 01:52:17;;;;;;;;;4.00;4.00;;;;;18.87;81.40;100964.91;5078247;27;45390;-69
2021/06/28 01:54:42;;;;;;;;;2.00;2.00;;;;;18.98;80.59;100976.28;5077952;27;45625;-70
2021/06/28 01:57:08;;;;;;;;;4.67;3.00;;;;;19.00;80.16;100966.31;5076613;28;47279;-70
2021/06/28 01:59:36;;;;;;;;;3.67;2.00;;;;;19.06;79.84;100952.34;5078608;28;45408;-71
2021/06/28 02:02:03;;;;;;;;;2.00;2.00;;;;;19.08;79.32;100943.19;5084622;27;45501;-66
2021/06/28 02:04:29;;;;;;;;;3.33;3.00;;;;;19.03;79.92;100950.00;5077532;27;45283;-67
2021/06/28 02:06:55;;;;;;;;;2.00;2.00;;;;;18.98;79.78;100952.31;5077912;28;46308;-66
2021/06/28 02:09:21;;;;;;;;;2.00;2.00;;;;;18.97;79.79;100962.16;5076369;28;45545;-67
2021/06/28 02:11:50;;;;;;;;;2.67;2.00;;;;;18.95;79.37;100962.31;5077976;28;45416;-67
2021/06/28 02:14:16;;;;;;;;;3.00;2.33;;;;;18.92;79.64;100965.28;5077718;27;45511;-66
2021/06/28 02:16:46;;;;;;;;;3.67;3.00;;;;;18.90;79.67;100972.63;5077832;27;46017;-67
2021/06/28 02:19:13;;;;;;;;;2.00;2.00;;;;;18.90;79.73;100982.41;5076221;27;45696;-66
2021/06/28 02:21:40;;;;;;;;;3.00;3.00;;;;;18.89;79.38;100975.38;5077395;27;45354;-67
2021/06/28 02:24:07;;;;;;;;;3.67;3.67;;;;;18.90;79.39;100971.75;5077336;27;45449;-68
2021/06/28 02:26:32;;;;;;;;;2.33;2.33;;;;;18.91;79.69;100963.59;5077697;27;45401;-67
2021/06/28 02:28:58;;;;;;;;;3.33;3.33;;;;;18.90;79.60;100946.00;5076884;27;45387;-66
2021/06/28 02:31:23;;;;;;;;;3.67;3.00;;;;;18.86;79.35;100944.59;5077275;27;45355;-66
2021/06/28 02:33:51;;;;;;;;;4.00;3.00;;;;;18.84;79.54;100946.63;5077657;27;45370;-69
2021/06/28 02:36:18;;;;;;;;;4.00;2.67;;;;;18.82;79.73;100943.28;5077376;27;46597;-72
2021/06/28 02:38:44;;;;;;;;;4.33;3.00;;;;;18.78;80.13;100933.94;5077964;27;45413;-73
2021/06/28 02:41:11;;;;;;;;;3.00;3.00;;;;;18.74;80.00;100936.09;5078351;28;45408;-70
2021/06/28 02:43:37;;;;;;;;;2.00;2.00;;;;;18.70;79.88;100939.25;5077432;27;45389;-70
2021/06/28 02:46:03;;;;;;;;;3.00;2.00;;;;;18.68;79.77;100949.22;5088719;27;45359;-70
2021/06/28 02:48:29;;;;;;;;;2.00;2.00;;;;;18.64;80.04;100957.53;5097683;27;45399;-70
2021/06/28 02:50:55;;;;;;;;;4.33;3.00;;;;;18.63;80.27;100963.03;5098114;27;45381;-70
2021/06/28 02:53:21;;;;;;;;;4.00;3.00;;;;;18.63;80.27;100963.03;5096472;27;45621;-70
2021/06/28 02:55:49;;;;;;;;;1.00;1.00;;;;;18.60;80.12;100988.13;5097821;27;46469;-70
2021/06/28 02:58:15;;;;;;;;;2.00;2.00;;;;;18.55;80.20;100985.13;5082578;27;46326;-70
2021/06/28 03:00:41;;;;;;;;;2.33;1.33;;;;;18.58;79.90;101000.75;5080252;27;45620;-70
2021/06/28 03:03:07;;;;;;;;;4.33;3.00;;;;;18.61;79.82;101000.41;5079635;27;45562;-70
2021/06/28 03:05:32;;;;;;;;;2.00;2.00;;;;;18.73;79.93;100981.50;5076909;27;45436;-69
2021/06/28 03:07:58;;;;;;;;;2.00;2.00;;;;;18.77;78.77;100973.03;5077009;27;45556;-69
2021/06/28 03:10:24;;;;;;;;;0.00;0.00;;;;;18.88;79.14;100974.56;5076730;27;45243;-69
2021/06/28 03:12:50;;;;;;;;;2.00;2.00;;;;;18.93;78.82;100966.97;5076277;27;45384;-70
2021/06/28 03:15:20;;;;;;;;;2.00;2.00;;;;;18.99;78.06;100972.63;5075897;27;46501;-66
2021/06/28 03:17:45;;;;;;;;;2.33;1.00;;;;;19.00;78.64;100972.44;5076132;27;45473;-66
2021/06/28 03:20:13;;;;;;;;;3.00;3.00;;;;;19.03;78.01;100952.66;5076361;27;45462;-66
2021/06/28 03:22:41;;;;;;;;;3.00;1.00;;;;;18.99;77.66;100938.00;5080289;27;45421;-66
2021/06/28 03:25:10;;;;;;;;;2.00;2.00;;;;;18.91;78.23;100925.53;5076819;27;45495;-66
2021/06/28 03:27:35;;;;;;;;;3.67;1.67;;;;;18.81;77.82;100928.28;5076581;27;45358;-69
2021/06/28 03:30:03;;;;;;;;;2.00;1.00;;;;;18.79;78.59;100917.00;5076738;27;45356;-69
2021/06/28 03:32:28;;;;;;;;;2.00;2.00;;;;;18.83;77.79;100917.50;5074068;27;45372;-69
2021/06/28 03:34:54;;;;;;;;;3.00;1.33;;;;;18.78;78.54;100907.34;5076559;28;45223;-70
2021/06/28 03:37:19;;;;;;;;;2.67;2.67;;;;;18.72;78.24;100906.19;5075696;27;45410;-69
2021/06/28 03:39:44;;;;;;;;;2.33;1.00;;;;;18.74;78.93;100908.66;5075384;28;45473;-69
2021/06/28 03:42:10;;;;;;;;;2.00;1.00;;;;;18.80;78.35;100924.00;5075386;28;45465;-70
2021/06/28 03:44:35;;;;;;;;;3.67;1.00;;;;;18.83;77.83;100922.84;5074945;27;47072;-70
2021/06/28 03:47:01;;;;;;;;;2.00;2.00;;;;;18.81;78.22;100920.31;5076078;28;45536;-70
2021/06/28 03:49:26;;;;;;;;;1.67;1.67;;;;;18.80;78.16;100934.63;5075967;27;45375;-70
2021/06/28 03:51:52;;;;;;;;;2.00;2.00;;;;;18.78;77.82;100947.25;5076284;28;45456;-70
2021/06/28 03:54:17;;;;;;;;;3.33;2.00;;;;;18.73;78.14;100945.06;5074670;28;46129;-70
2021/06/28 03:56:43;;;;;;;;;2.67;1.67;;;;;18.68;78.27;100941.25;5076293;27;45404;-70
2021/06/28 03:59:08;;;;;;;;;1.33;1.33;;;;;18.62;78.34;100948.06;5076140;27;45366;-70
2021/06/28 04:01:34;;;;;;;;;4.00;4.00;;;;;18.63;79.11;100961.19;5076153;27;45389;-70
2021/06/28 04:04:00;;;;;;;;;2.00;1.67;;;;;18.74;78.13;100940.59;5076538;27;46168;-70
2021/06/28 04:06:25;;;;;;;;;2.00;2.00;;;;;18.75;77.69;100942.28;5076163;27;45465;-70
2021/06/28 04:08:51;;;;;;;;;3.00;1.67;;;;;18.71;77.92;100957.72;5076454;27;45307;-70
2021/06/28 04:11:19;;;;;;;;;1.00;1.00;;;;;18.75;77.22;100960.91;5076047;28;45322;-70
2021/06/28 04:13:45;;;;;;;;;2.00;1.00;;;;;18.78;77.38;100964.03;5075472;27;47187;-70
2021/06/28 04:16:12;;;;;;;;;2.00;2.00;;;;;18.84;77.63;100970.56;5075652;28;45484;-69
2021/06/28 04:18:37;;;;;;;;;3.33;2.00;;;;;18.83;77.59;100963.56;5075790;27;45564;-71
2021/06/28 04:21:03;;;;;;;;;4.00;3.00;;;;;18.85;78.05;100969.56;5075932;27;45389;-69
2021/06/28 04:23:28;;;;;;;;;3.00;2.00;;;;;18.89;76.66;100964.75;5075163;27;46633;-70
2021/06/28 04:25:54;;;;;;;;;1.00;1.00;;;;;18.84;77.13;100967.91;5075426;27;45595;-69
2021/06/28 04:28:20;;;;;;;;;1.67;1.67;;;;;18.79;77.10;100963.06;5076009;27;45409;-70
2021/06/28 04:30:45;;;;;;;;;4.33;2.00;;;;;18.74;77.09;100957.38;5074162;28;45511;-69
2021/06/28 04:33:11;;;;;;;;;2.33;2.33;;;;;18.69;77.41;100959.69;5075251;27;46275;-70
2021/06/28 04:35:36;;;;;;;;;3.00;3.00;;;;;18.66;77.40;100961.88;5075599;27;45344;-68
2021/06/28 04:38:02;;;;;;;;;2.00;2.00;;;;;18.61;77.86;100955.19;5075791;27;45365;-69
2021/06/28 04:40:29;;;;;;;;;2.00;2.00;;;;;18.56;78.16;100960.16;5074308;28;45585;-69
2021/06/28 04:42:56;;;;;;;;;4.00;2.00;;;;;18.51;78.35;100959.81;5074117;28;48492;-70
2021/06/28 04:45:23;;;;;;;;;2.00;2.00;;;;;18.49;78.08;100967.13;5075528;27;45411;-70
2021/06/28 04:47:50;;;;;;;;;1.67;1.67;;;;;18.48;78.11;100949.50;5075307;28;45355;-70
2021/06/28 04:50:18;;;;;;;;;2.00;2.00;;;;;18.43;78.32;100957.94;5073362;28;45363;-69
2021/06/28 04:52:44;;;;;;;;;5.33;2.00;;;;;18.43;79.19;100979.22;5072439;27;47426;-69
2021/06/28 04:55:13;;;;;;;;;1.00;1.00;;;;;18.54;78.69;100983.44;5073698;28;45387;-70
2021/06/28 04:57:39;;;;;;;;;3.00;3.00;;;;;18.61;78.69;100984.44;5074977;28;45361;-69
2021/06/28 05:00:07;;;;;;;;;1.00;1.00;;;;;18.58;78.11;100982.13;5075488;27;45365;-69
2021/06/28 05:02:32;;;;;;;;;3.33;3.00;;;;;18.56;78.36;100977.94;5073930;27;45498;-70
2021/06/28 05:04:58;;;;;;;;;3.00;2.00;;;;;18.56;78.79;100989.41;5075067;27;45317;-70
2021/06/28 05:07:24;;;;;;;;;2.00;2.00;;;;;18.59;78.53;100994.44;5075252;27;45512;-70
2021/06/28 05:09:49;;;;;;;;;2.00;2.00;;;;;18.57;78.13;100998.25;5074815;28;45566;-69
2021/06/28 05:12:15;;;;;;;;;2.33;2.33;;;;;18.56;77.88;100997.41;5073957;27;45501;-69
2021/06/28 05:14:41;;;;;;;;;3.00;2.67;;;;;18.55;77.41;100993.09;5075067;27;45566;-70
2021/06/28 05:17:07;;;;;;;;;2.00;2.00;;;;;18.54;77.95;101007.38;5075322;27;45446;-70
2021/06/28 05:19:33;;;;;;;;;3.00;2.00;;;;;18.53;78.29;101013.69;5075099;27;45637;-70
2021/06/28 05:21:59;;;;;;;;;2.00;2.00;;;;;18.50;78.17;101003.38;5073122;27;47211;-70
2021/06/28 05:24:24;;;;;;;;;3.00;3.00;;;;;18.46;78.48;101005.50;5075057;28;45466;-70
2021/06/28 05:26:50;;;;;;;;;4.33;3.33;;;;;18.44;78.73;100998.69;5074807;28;45366;-69
2021/06/28 05:29:15;;;;;;;;;1.67;1.67;;;;;18.41;78.88;100997.19;5074868;27;45489;-70
2021/06/28 05:31:40;;;;;;;;;4.67;3.00;;;;;18.37;78.59;101001.16;5074136;28;46325;-69
2021/06/28 05:34:06;;;;;;;;;6.67;4.00;;;;;18.33;78.80;101012.25;5074793;28;45600;-70
2021/06/28 05:36:33;;;;;;;;;2.00;2.00;;;;;18.31;79.10;101010.56;5074884;28;45400;-71
2021/06/28 05:38:58;;;;;;;;;4.33;3.00;;;;;18.33;78.58;101001.63;5074778;28;45442;-66
2021/06/28 05:41:24;;;;;;;;;7.67;4.00;;;;;18.32;78.83;101000.78;5073895;28;46186;-67
2021/06/28 05:43:49;;;;;;;;;3.33;3.33;;;;;18.30;79.07;100994.78;5074596;28;45481;-70
2021/06/28 05:46:16;;;;;;;;;7.00;4.33;;;;;18.27;79.26;100987.97;5074944;28;45269;-71
2021/06/28 05:48:42;;;;;;;;;3.00;1.00;;;;;18.21;79.26;100966.50;5074234;27;45622;-70
2021/06/28 05:51:08;;;;;;;;;4.33;2.00;;;;;18.23;79.45;100964.53;5074311;27;45836;-69
2021/06/28 05:53:33;;;;;;;;;5.33;4.00;;;;;18.23;79.64;100954.72;5074463;28;45393;-70
2021/06/28 05:56:00;;;;;;;;;3.67;2.67;;;;;18.22;79.53;100954.88;5074137;27;45279;-71
2021/06/28 05:58:28;;;;;;;;;2.33;2.33;;;;;18.23;79.76;100960.03;5074632;27;45423;-70
2021/06/28 06:00:54;;;;;;;;;6.00;5.00;;;;;18.22;79.77;100961.00;5073834;27;45473;-70
2021/06/28 06:03:20;;;;;;;;;2.67;2.67;;;;;18.19;79.41;100941.88;5074858;27;45256;-70
2021/06/28 06:05:45;;;;;;;;;5.33;3.00;;;;;18.20;79.75;100955.03;5077831;28;45370;-65
2021/06/28 06:08:11;;;;;;;;;2.67;2.33;;;;;18.21;79.79;100964.66;5076476;27;45479;-65
2021/06/28 06:10:36;;;;;;;;;4.67;3.00;;;;;18.19;79.50;100969.31;5077371;27;46233;-67
2021/06/28 06:13:02;;;;;;;;;2.67;2.67;;;;;18.19;79.79;100976.44;5077508;27;45520;-66
2021/06/28 06:15:28;;;;;;;;;5.33;2.67;;;;;18.18;79.58;100983.59;5078016;27;45307;-66
2021/06/28 06:17:53;;;;;;;;;4.67;2.67;;;;;18.18;79.27;100983.59;5077707;27;45399;-65
2021/06/28 06:20:19;;;;;;;;;3.00;2.33;;;;;18.21;79.40;100987.75;5075980;27;46184;-66
2021/06/28 06:22:45;;;;;;;;;6.33;3.00;;;;;18.23;79.50;100985.78;5077339;28;45271;-66
2021/06/28 06:25:11;;;;;;;;;5.33;3.67;;;;;18.24;79.36;100998.91;5081034;27;45796;-66
2021/06/28 06:27:37;;;;;;;;;6.00;3.67;;;;;18.25;79.54;101010.38;5093218;27;45552;-67
2021/06/28 06:30:05;;;;;;;;;9.00;5.00;;;;;18.30;79.54;101027.50;5096129;27;46254;-66
2021/06/28 06:32:30;;;;;;;;;6.67;4.67;;;;;18.38;79.36;101023.25;5097427;27;45431;-66
2021/06/28 06:34:56;;;;;;;;;1.33;1.33;;;;;18.39;78.93;101028.41;5097871;27;45378;-67
2021/06/28 06:37:21;;;;;;;;;5.67;4.00;;;;;18.43;78.71;101019.13;5097985;27;45892;-66
2021/06/28 06:39:48;;;;;;;;;4.00;4.00;;;;;18.48;78.58;101034.59;5097146;27;45579;-65
2021/06/28 06:42:14;;;;;;;;;4.67;4.00;;;;;18.50;78.57;101040.63;5097907;27;45488;-66
2021/06/28 06:44:39;;;;;;;;;4.00;4.00;;;;;18.53;78.28;101034.16;5097658;27;45508;-66
2021/06/28 06:47:06;;;;;;;;;9.00;3.67;;;;;18.53;78.09;101034.16;5093468;27;45384;-67
2021/06/28 06:49:32;;;;;;;;;4.33;4.00;;;;;18.52;78.13;101033.28;5075990;28;46615;-66
2021/06/28 06:51:57;;;;;;;;;3.00;3.00;;;;;18.50;78.22;101040.63;5079864;27;45314;-66
2021/06/28 06:54:22;;;;;;;;;6.00;4.00;;;;;18.53;77.81;101034.16;5096093;27;45489;-66
2021/06/28 06:56:48;;;;;;;;;4.67;4.00;;;;;18.56;77.62;101021.34;5080275;27;45463;-66
2021/06/28 06:59:13;;;;;;;;;3.50;3.50;;;;;18.54;77.96;101020.69;5077004;27;46222;-66
2021/06/28 07:01:41;;;;;;;;;5.00;4.00;;;;;18.55;78.16;101032.13;5075856;28;45482;-67
2021/06/28 07:04:06;;;;;;;;;7.00;5.00;;;;;18.58;78.46;101030.00;5076977;27;45407;-66
2021/06/28 07:06:32;;;;;;;;;3.33;3.00;;;;;18.61;78.24;101027.00;5076841;28;45490;-66
2021/06/28 07:08:58;;;;;;;;;5.67;3.00;;;;;18.66;78.06;101029.22;5076536;27;45438;-67
2021/06/28 07:11:25;;;;;;;;;4.33;4.00;;;;;18.67;77.96;101027.38;5076785;27;45453;-66
2021/06/28 07:13:52;;;;;;;;;4.00;3.67;;;;;18.70;77.79;101035.88;5075236;28;45281;-66
2021/06/28 07:16:20;;;;;;;;;4.33;4.00;;;;;18.76;77.73;101045.03;5074584;27;46043;-66
2021/06/28 07:18:46;;;;;;;;;5.67;5.67;;;;;18.85;77.73;101038.78;5076490;27;46065;-66
2021/06/28 07:21:12;;;;;;;;;5.33;5.00;;;;;18.93;77.27;101041.47;5076200;27;45487;-65
2021/06/28 07:23:38;;;;;;;;;3.67;3.67;;;;;19.01;77.34;101042.53;5076249;28;45476;-66
2021/06/28 07:26:04;;;;;;;;;4.33;4.00;;;;;19.07;77.20;101042.69;5076283;27;45440;-67
2021/06/28 07:28:31;;;;;;;;;6.00;5.00;;;;;19.13;76.78;101046.53;5076251;28;46393;-64
2021/06/28 07:30:58;;;;;;;;;46.00;34.00;;;;;19.22;76.62;101050.88;5075216;28;45256;-65
2021/06/28 07:33:28;;;;;;;;;6.00;4.00;;;;;19.31;75.98;101050.91;5076951;28;45302;-66
2021/06/28 07:35:54;;;;;;;;;11.00;4.00;;;;;19.37;76.11;101059.06;5076708;28;45425;-66
2021/06/28 07:38:22;;;;;;;;;28.33;25.33;;;;;19.43;76.17;101052.25;5075996;28;46225;-65
2021/06/28 07:40:47;;;;;;;;;5.67;5.33;;;;;19.54;75.55;101054.59;5089374;27;45452;-66
2021/06/28 07:43:13;;;;;;;;;5.00;5.00;;;;;19.58;75.21;101058.59;5081368;27;45492;-67
2021/06/28 07:45:38;;;;;;;;;6.00;5.00;;;;;19.62;75.04;101059.94;5076218;27;45362;-66
2021/06/28 07:48:04;;;;;;;;;11.00;11.00;;;;;19.67;75.54;101058.59;5074877;28;47280;-67
2021/06/28 07:50:30;;;;;;;;;10.00;7.67;;;;;19.73;75.38;101065.94;5076258;27;45407;-66
2021/06/28 07:52:56;;;;;;;;;43.67;35.33;;;;;19.74;74.85;101065.75;5074500;28;45358;-66
2021/06/28 07:55:21;;;;;;;;;11.67;8.00;;;;;19.80;74.84;101064.28;5076107;28;45542;-67
2021/06/28 07:57:47;;;;;;;;;5.00;5.00;;;;;19.82;74.30;101062.28;5076151;27;45475;-64
2021/06/28 08:00:16;;;;;;;;;7.00;6.00;;;;;19.83;74.55;101053.31;5074610;28;45520;-65
2021/06/28 08:02:43;;;;;;;;;3.33;3.33;;;;;19.89;73.81;101054.50;5075789;27;45531;-65
2021/06/28 08:05:09;;;;;;;;;5.00;3.00;;;;;19.92;73.33;101056.81;5076032;27;45387;-65
2021/06/28 08:07:35;;;;;;;;;4.67;4.67;;;;;19.94;73.42;101055.66;5075979;27;45263;-66
2021/06/28 08:10:05;;;;;;;;;14.33;14.33;;;;;19.98;72.91;101063.28;5075797;27;45546;-66
2021/06/28 08:12:31;;;;;;;;;28.33;27.67;;;;;20.00;72.98;101058.63;5076658;27;45327;-66
2021/06/28 08:14:58;;;;;;;;;6.00;4.33;;;;;20.02;72.70;101061.94;5076226;27;45509;-66
2021/06/28 08:17:23;;;;;;;;;2.67;2.67;;;;;20.08;73.10;101066.63;5075670;27;46676;-66
2021/06/28 08:19:48;;;;;;;;;2.33;2.33;;;;;20.12;72.33;101051.94;5075555;27;45448;-66
2021/06/28 08:22:15;;;;;;;;;3.67;3.00;;;;;20.20;72.43;101053.75;5075644;28;45563;-66
2021/06/28 08:24:40;;;;;;;;;6.00;3.00;;;;;20.29;72.18;101042.09;5074473;27;45516;-66
2021/06/28 08:27:06;;;;;;;;;2.33;2.33;;;;;20.33;72.02;101042.56;5074913;28;45900;-66
2021/06/28 08:29:32;;;;;;;;;3.00;3.00;;;;;20.37;71.95;101043.88;5075840;27;45483;-66
2021/06/28 08:31:57;;;;;;;;;2.33;2.00;;;;;20.40;71.87;101038.22;5074906;27;45499;-66
2021/06/28 08:34:23;;;;;;;;;5.33;3.00;;;;;20.45;70.92;101035.88;5075769;27;45613;-66
2021/06/28 08:36:49;;;;;;;;;3.00;3.00;;;;;20.52;70.17;101036.84;5074992;27;46405;-66
2021/06/28 08:39:16;;;;;;;;;6.33;3.67;;;;;20.62;70.79;101042.00;5075576;27;45516;-66
2021/06/28 08:41:45;;;;;;;;;5.67;2.33;;;;;20.69;70.18;101042.13;5075337;28;45414;-65
2021/06/28 08:44:12;;;;;;;;;3.67;2.00;;;;;20.73;69.65;101044.31;5075630;27;45533;-67
2021/06/28 08:46:39;;;;;;;;;2.67;2.00;;;;;20.79;69.49;101053.47;5075228;27;46812;-66
2021/06/28 08:49:05;;;;;;;;;2.00;2.00;;;;;20.85;69.38;101051.94;5075217;27;45351;-65
2021/06/28 08:51:31;;;;;;;;;3.00;2.00;;;;;20.88;68.76;101044.41;5075453;27;45510;-66
2021/06/28 08:53:57;;;;;;;;;2.00;2.00;;;;;20.88;69.06;101044.41;5075034;27;45415;-66
2021/06/28 08:56:23;;;;;;;;;2.33;2.33;;;;;20.97;68.94;101049.72;5075027;27;45887;-66
2021/06/28 08:58:49;;;;;;;;;4.00;2.33;;;;;21.02;68.33;101044.69;5075199;27;45369;-66
2021/06/28 09:01:15;;;;;;;;;1.50;1.25;;;;;21.08;68.04;101047.50;5075300;27;45645;-66
2021/06/28 09:03:40;;;;;;;;;1.00;1.00;;;;;21.15;68.45;101047.63;5075596;28;45436;-66
2021/06/28 09:06:14;;;;;;;;;4.67;3.00;;;;;21.26;69.08;101049.91;5073966;27;45759;-66
2021/06/28 09:08:57;;;;;;;;;3.00;3.00;;;;;21.46;68.87;101048.56;5075564;27;45369;-66
2021/06/28 09:11:23;;;;;;;;;4.00;1.00;;;;;21.57;67.72;101051.69;5075257;27;45806;-66
2021/06/28 09:13:50;;;;;;;;;2.00;2.00;;;;;21.62;65.77;101045.00;5075259;27;45415;-66
2021/06/28 09:16:18;;;;;;;;;2.00;2.00;;;;;21.78;66.67;101052.88;5075055;27;45662;-65
2021/06/28 09:19:06;;;;;;;;;2.00;1.00;;;;;21.93;64.43;101060.94;5074849;27;45401;-65
2021/06/28 09:21:40;;;;;;;;;2.00;2.00;;;;;22.13;61.80;101061.25;5074266;27;45425;-66
2021/06/28 09:24:23;;;;;;;;;2.00;2.00;;;;;22.54;61.17;101068.06;5086619;27;45342;-66
2021/06/28 09:26:49;;;;;;;;;2.00;2.00;;;;;22.98;60.51;101063.69;5095241;27;46297;-69
2021/06/28 09:29:15;;;;;;;;;1.00;1.00;;;;;23.41;60.42;101069.13;5094065;27;45456;-69
2021/06/28 09:31:46;;;;;;;;;1.00;1.00;;;;;23.82;58.96;101073.84;5095212;27;45432;-69
2021/06/28 09:34:16;;;;;;;;;0.25;0.25;;;;;24.03;58.94;101083.75;5095178;27;45372;-70
2021/06/28 09:36:51;;;;;;;;;1.50;1.00;;;;;24.03;56.18;101078.38;5095906;27;45642;-69
2021/06/28 09:39:25;;;;;;;;;1.75;1.00;;;;;24.14;57.83;101079.69;5098761;27;45328;-69
2021/06/28 09:41:57;;;;;;;;;1.75;1.50;;;;;24.27;61.27;101080.81;5098727;27;46006;-69
2021/06/28 09:44:25;;;;;;;;;2.50;2.00;;;;;24.34;61.29;101084.38;5098465;27;45504;-69
2021/06/28 09:47:14;;;;;;;;;2.00;0.75;;;;;24.32;59.65;101081.06;5098752;27;46193;-69
2021/06/28 09:49:59;;;;;;;;;3.25;2.00;;;;;24.29;59.86;101079.59;5098285;27;45370;-69
2021/06/28 09:52:35;;;;;;;;;2.00;1.00;;;;;24.31;60.52;101084.75;5096798;27;45353;-70
2021/06/28 09:55:34;;;;;;;;;1.00;1.00;;;;;24.29;60.48;101084.97;5098666;27;45426;-70
2021/06/28 09:58:08;;;;;;;;;1.25;1.25;;;;;24.21;59.73;101088.63;5088308;27;45544;-70
2021/06/28 10:00:48;;;;;;;;;1.00;1.00;;;;;24.13;55.94;101088.78;5094761;27;45329;-70
2021/06/28 10:03:38;;;;;;;;;3.00;1.00;;;;;24.11;56.79;101090.00;5076484;28;45397;-70
2021/06/28 10:08:50;;;;;;;;;1.50;1.50;;;;;24.12;61.08;101097.84;5077977;27;45423;-69
2021/06/28 10:11:24;;;;;;;;;2.00;2.00;;;;;24.05;58.90;101092.44;5076186;27;45418;-70
2021/06/28 10:14:16;;;;;;;;;2.00;2.00;;;;;24.01;57.84;101098.38;5057473;28;45379;-71
2021/06/28 10:16:41;;;;;;;;;2.00;2.00;;;;;23.96;57.55;101103.50;5065186;27;45692;-69
2021/06/28 10:19:09;;;;;;;;;1.00;1.00;;;;;23.92;56.83;101102.22;5072324;28;46059;-71
2021/06/28 10:21:37;;;;;;;;;3.00;3.00;;;;;23.89;58.14;101109.59;5076738;27;45464;-70
2021/06/28 10:24:05;;;;;;;;;6.50;3.50;;;;;23.87;58.86;101105.44;5076419;28;45456;-69
2021/06/28 10:26:30;;;;;;;;;0.75;0.75;;;;;23.86;58.18;101098.44;5077507;27;45595;-71
2021/06/28 10:28:57;;;;;;;;;2.00;2.00;;;;;23.83;57.43;101099.66;5077762;27;45894;-70
2021/06/28 10:31:23;;;;;;;;;3.50;1.75;;;;;23.81;56.33;101095.50;5075489;27;45388;-71
2021/06/28 10:33:55;;;;;;;;;2.00;2.00;;;;;23.79;58.67;101097.53;5077391;27;45460;-70
2021/06/28 10:36:24;;;;;;;;;1.75;1.00;;;;;23.78;58.85;101095.88;5077432;28;45351;-70
2021/06/28 10:38:55;;;;;;;;;4.75;1.75;;;;;23.75;58.34;101091.72;5076221;28;47322;-69
2021/06/28 10:41:39;;;;;;;;;2.00;2.00;;;;;23.72;58.34;101092.13;5077516;27;45311;-69
2021/06/28 10:44:11;;;;;;;;;2.00;2.00;;;;;23.70;58.64;101095.00;5077817;27;45418;-69
2021/06/28 10:46:39;;;;;;;;;3.00;1.00;;;;;23.67;56.57;101095.38;5077221;27;45383;-70
2021/06/28 10:49:05;;;;;;;;;1.00;1.00;;;;;23.64;58.51;101094.91;5076606;27;45397;-65
2021/06/28 10:51:47;;;;;;;;;2.50;2.00;;;;;23.60;57.20;101093.63;5077685;27;45335;-65
2021/06/28 10:54:16;;;;;;;;;1.00;1.00;;;;;23.55;58.38;101092.38;5077608;27;45416;-66
2021/06/28 10:56:43;;;;;;;;;3.25;2.75;;;;;23.51;59.03;101085.72;5074953;27;45501;-66
2021/06/28 10:59:20;;;;;;;;;2.00;1.25;;;;;23.46;57.92;101081.97;5077057;28;45447;-65
2021/06/28 11:01:55;;;;;;;;;1.50;1.50;;;;;23.39;58.24;101082.72;5076508;27;45454;-66
2021/06/28 11:04:27;;;;;;;;;1.50;1.50;;;;;23.33;58.37;101072.75;5077334;27;45570;-65
2021/06/28 11:06:52;;;;;;;;;1.00;1.00;;;;;23.27;59.06;101081.56;5077397;27;45384;-66
2021/06/28 11:09:38;;;;;;;;;1.75;1.00;;;;;23.17;58.67;101076.50;5075357;28;46821;-67
2021/06/28 11:12:07;;;;;;;;;2.25;2.00;;;;;23.13;60.26;101066.31;5076703;27;45449;-66
2021/06/28 11:14:37;;;;;;;;;2.00;2.00;;;;;23.17;60.33;101076.50;5076514;27;45401;-65
2021/06/28 11:17:07;;;;;;;;;1.25;1.00;;;;;23.27;60.60;101078.06;5075244;27;45455;-66
2021/06/28 11:19:58;;;;;;;;;1.50;0.00;;;;;23.38;61.18;101074.88;5076929;28;46192;-66
2021/06/28 11:22:33;;;;;;;;;1.00;1.00;;;;;23.50;60.58;101078.69;5076891;27;45409;-66
2021/06/28 11:25:08;;;;;;;;;1.75;1.00;;;;;23.63;60.62;101069.16;5077033;27;45493;-68
2021/06/28 11:27:35;;;;;;;;;1.00;1.00;;;;;23.72;59.95;101070.66;5076944;27;45479;-65
2021/06/28 11:30:00;;;;;;;;;2.00;1.00;;;;;23.83;58.48;101067.47;5076155;28;46236;-66